Time;durP1;ratioP1;P1;durP2;ratioP2;P2;SDS_P1;SDS_P2;PMS_P1;PMS_P2;Temp;Humidity;BMP_temperature;BMP_pressure;BME280_temperature;BME280_humidity;BME280_pressure;Samples;Min_cycle;Max_cycle;Signal;HPM_P1;HPM_P2
2022/10/15 00:00:32;;;;;;;;;;;;;;;22.81;46.46;93917.81;5059383;28;7011;-60
2022/10/15 00:02:58;;;;;;;;;;;;;;;22.85;46.83;93929.28;5057028;28;7278;-60
2022/10/15 00:05:24;;;;;;;;;;;;;;;22.82;46.40;93927.53;5071395;28;7211;-60
2022/10/15 00:07:52;;;;;;;;;;;;;;;22.83;46.81;93928.28;5067216;28;7172;-61
2022/10/15 00:10:25;;;;;;;;;;;;;;;22.84;46.95;93921.53;5065584;28;7230;-60
2022/10/15 00:13:04;;;;;;;;;;;;;;;22.82;46.68;93916.56;5057954;28;8949;-60
2022/10/15 00:15:40;;;;;;;;;;;;;;;22.82;46.70;93924.78;5058608;28;9080;-60
2022/10/15 00:18:32;;;;;;;;;;;;;;;22.81;46.74;93920.56;5087872;28;7149;-60
2022/10/15 00:21:18;;;;;;;;;;;;;;;22.81;46.44;93919.81;5069124;28;7269;-60
2022/10/15 00:23:47;;;;;;;;;;;;;;;22.81;46.74;93920.56;5066160;28;7285;-60
2022/10/15 00:26:24;;;;;;;;;;;;;;;22.82;46.71;93930.28;5073613;28;7024;-60
2022/10/15 00:29:09;;;;;;;;;;;;;;;22.80;46.70;93927.28;5066498;28;7610;-60
2022/10/15 00:31:36;;;;;;;;;;;;;;;22.79;46.80;93923.06;5063891;28;7237;-60
2022/10/15 00:34:32;;;;;;;;;;;;;;;22.80;46.68;93916.31;5054591;28;8526;-60
2022/10/15 00:37:07;;;;;;;;;;;;;;;22.81;46.21;93930.78;4967056;28;7296;-60
2022/10/15 00:39:33;;;;;;;;;;;;;;;22.81;46.35;93930.78;4983476;28;7218;-60
2022/10/15 00:42:17;;;;;;;;;;;;;;;22.80;46.38;93930.03;4993611;28;7133;-60
2022/10/15 00:44:58;;;;;;;;;;;;;;;22.79;46.60;93928.56;4971028;28;7354;-60
2022/10/15 00:47:46;;;;;;;;;;;;;;;22.81;46.83;93937.03;5004145;28;8744;-60
2022/10/15 00:50:22;;;;;;;;;;;;;;;22.81;46.58;93936.25;4993390;28;8949;-60
2022/10/15 00:53:09;;;;;;;;;;;;;;;22.78;46.47;93932.53;4986756;28;9393;-60
2022/10/15 00:55:49;;;;;;;;;;;;;;;22.79;46.95;93936.78;4987730;28;7240;-60
2022/10/15 00:58:56;;;;;;;;;;;;;;;22.80;46.77;93938.25;4992792;28;7211;-60
2022/10/15 01:01:24;;;;;;;;;;;;;;;22.78;46.81;93940.75;5001186;28;9154;-60
2022/10/15 01:03:55;;;;;;;;;;;;;;;22.80;46.92;93938.25;4993131;28;7386;-60
2022/10/15 01:06:24;;;;;;;;;;;;;;;22.80;46.32;93942.97;4975267;28;7412;-60
2022/10/15 01:08:51;;;;;;;;;;;;;;;22.79;47.15;93941.50;4991665;28;8156;-60
2022/10/15 01:11:35;;;;;;;;;;;;;;;22.78;46.88;93948.22;4973487;28;9377;-60
2022/10/15 01:14:36;;;;;;;;;;;;;;;22.78;46.77;93946.25;5042749;28;7235;-60
2022/10/15 01:17:41;;;;;;;;;;;;;;;22.78;46.86;93943.50;4992206;28;9720;-60
2022/10/15 01:20:37;;;;;;;;;;;;;;;22.79;46.85;93941.50;4989819;28;6984;-60
2022/10/15 01:23:31;;;;;;;;;;;;;;;22.79;47.07;93938.75;4991470;28;7091;-60
2022/10/15 01:26:31;;;;;;;;;;;;;;;22.76;46.81;93926.81;4983730;28;8737;-60
2022/10/15 01:29:15;;;;;;;;;;;;;;;22.77;46.36;93933.03;4992176;28;7017;-60
2022/10/15 01:31:59;;;;;;;;;;;;;;;22.77;46.53;93939.25;4990205;28;6987;-60
2022/10/15 01:35:02;;;;;;;;;;;;;;;22.78;46.92;93937.25;4975606;28;7239;-60
2022/10/15 01:37:42;;;;;;;;;;;;;;;22.76;46.19;93940.50;4964957;28;9736;-60
2022/10/15 01:40:19;;;;;;;;;;;;;;;22.75;46.67;93941.75;4974258;28;7056;-60
2022/10/15 01:43:32;;;;;;;;;;;;;;;22.75;46.96;93941.75;4993716;28;9141;-60
2022/10/15 01:46:12;;;;;;;;;;;;;;;22.76;46.56;93948.75;4950401;28;6864;-60
2022/10/15 01:48:41;;;;;;;;;;;;;;;22.77;46.83;93950.22;4958953;28;9100;-61
2022/10/15 01:51:12;;;;;;;;;;;;;;;22.78;46.61;93946.25;4967959;28;9095;-60
2022/10/15 01:53:51;;;;;;;;;;;;;;;22.79;46.73;93941.50;4966641;28;7068;-60
2022/10/15 01:56:29;;;;;;;;;;;;;;;22.77;46.49;93946.75;4991567;28;7235;-60
2022/10/15 01:58:59;;;;;;;;;;;;;;;22.78;46.36;93945.47;5009286;28;6990;-60
2022/10/15 02:01:25;;;;;;;;;;;;;;;22.76;46.58;93946.00;5005531;28;8838;-60
2022/10/15 02:03:52;;;;;;;;;;;;;;;22.76;46.40;93940.50;5025445;28;7020;-60
2022/10/15 02:06:25;;;;;;;;;;;;;;;22.77;46.64;93938.53;4993225;28;9519;-60
2022/10/15 02:09:07;;;;;;;;;;;;;;;22.77;46.78;93935.78;5006970;28;7098;-60
2022/10/15 02:11:49;;;;;;;;;;;;;;;22.77;46.17;93925.53;5002378;28;9697;-60
2022/10/15 02:14:27;;;;;;;;;;;;;;;22.76;46.61;93921.31;4987489;28;7071;-60
2022/10/15 02:17:08;;;;;;;;;;;;;;;22.77;46.40;93922.81;4994816;28;8677;-61
2022/10/15 02:19:56;;;;;;;;;;;;;;;22.78;46.85;93916.06;5022509;28;7271;-60
2022/10/15 02:22:55;;;;;;;;;;;;;;;22.76;46.97;93913.09;5054199;28;6991;-61
2022/10/15 02:25:41;;;;;;;;;;;;;;;22.76;46.58;93913.09;4982362;28;9154;-60
2022/10/15 02:28:14;;;;;;;;;;;;;;;22.77;46.92;93914.56;4999395;28;7070;-60
2022/10/15 02:30:52;;;;;;;;;;;;;;;22.75;46.57;93905.38;4970671;28;7166;-61
2022/10/15 02:33:22;;;;;;;;;;;;;;;22.75;46.74;93903.38;4986232;28;7393;-60
2022/10/15 02:35:52;;;;;;;;;;;;;;;22.75;46.57;93900.63;4964290;28;7001;-61
2022/10/15 02:38:46;;;;;;;;;;;;;;;22.75;46.45;93891.69;4974709;28;7425;-61
2022/10/15 02:41:14;;;;;;;;;;;;;;;22.74;46.90;93896.41;4964792;28;6999;-61
2022/10/15 02:43:41;;;;;;;;;;;;;;;22.73;46.77;93891.44;4974110;28;7318;-61
2022/10/15 02:46:19;;;;;;;;;;;;;;;22.74;46.90;93890.16;4993965;28;7407;-61
2022/10/15 02:48:48;;;;;;;;;;;;;;;22.74;46.57;93895.66;4981042;28;7018;-61
2022/10/15 02:51:52;;;;;;;;;;;;;;;22.75;46.44;93899.91;4979465;28;7375;-61
2022/10/15 02:54:31;;;;;;;;;;;;;;;22.74;47.10;93901.88;4945139;28;7216;-61
2022/10/15 02:57:34;;;;;;;;;;;;;;;22.73;46.29;93900.38;4950608;28;7133;-61
2022/10/15 02:59:59;;;;;;;;;;;;;;;22.73;46.41;93908.59;4922663;29;6954;-60
2022/10/15 03:02:25;;;;;;;;;;;;;;;22.74;46.83;93915.59;4962968;28;9457;-61
2022/10/15 03:04:51;;;;;;;;;;;;;;;22.75;46.78;93916.34;4989985;28;9322;-60
2022/10/15 03:07:30;;;;;;;;;;;;;;;22.74;46.37;93910.13;4990144;28;9663;-60
2022/10/15 03:09:56;;;;;;;;;;;;;;;22.74;46.86;93909.34;4981836;28;7243;-61
2022/10/15 03:12:33;;;;;;;;;;;;;;;22.74;46.90;93915.59;4990112;28;7169;-60
2022/10/15 03:14:59;;;;;;;;;;;;;;;22.74;46.81;93915.59;4967544;28;7189;-61
2022/10/15 03:17:39;;;;;;;;;;;;;;;22.73;46.75;93916.09;4980996;28;7238;-61
2022/10/15 03:20:25;;;;;;;;;;;;;;;22.72;46.88;93911.88;4987044;28;9381;-60
2022/10/15 03:22:53;;;;;;;;;;;;;;;22.70;46.65;93909.63;4990315;28;9440;-60
2022/10/15 03:25:30;;;;;;;;;;;;;;;22.72;46.56;93912.63;4990050;28;7352;-61
2022/10/15 03:27:56;;;;;;;;;;;;;;;22.72;46.31;93909.88;4980437;28;9201;-60
2022/10/15 03:30:23;;;;;;;;;;;;;;;22.72;46.61;93920.84;4987805;28;8532;-60
2022/10/15 03:32:53;;;;;;;;;;;;;;;22.72;46.64;93915.34;5011930;28;7585;-61
2022/10/15 03:35:22;;;;;;;;;;;;;;;22.71;46.70;93919.34;5039181;28;6982;-60
2022/10/15 03:37:48;;;;;;;;;;;;;;;22.71;46.58;93913.84;5055551;28;7365;-60
2022/10/15 03:40:14;;;;;;;;;;;;;;;22.71;46.70;93910.34;5070876;28;9333;-60
2022/10/15 03:42:40;;;;;;;;;;;;;;;22.71;46.67;93911.09;5060387;28;7297;-60
2022/10/15 03:45:08;;;;;;;;;;;;;;;22.71;46.93;93916.59;5065539;28;9294;-61
2022/10/15 03:47:35;;;;;;;;;;;;;;;22.72;46.74;93922.81;5084949;28;8204;-61
2022/10/15 03:50:01;;;;;;;;;;;;;;;22.71;46.36;93913.09;5055745;28;7277;-61
2022/10/15 03:52:42;;;;;;;;;;;;;;;22.73;46.66;93922.31;5042956;28;7169;-61
2022/10/15 03:55:23;;;;;;;;;;;;;;;22.72;46.33;93929.06;5054890;28;7254;-60
2022/10/15 03:57:52;;;;;;;;;;;;;;;22.72;46.74;93920.84;5057917;28;7388;-61
2022/10/15 04:00:18;;;;;;;;;;;;;;;22.73;46.23;93927.78;5066210;28;8655;-61
2022/10/15 04:02:43;;;;;;;;;;;;;;;22.73;46.26;93935.31;5062730;28;8996;-61
2022/10/15 04:05:11;;;;;;;;;;;;;;;22.71;46.67;93932.28;5065387;28;8688;-61
2022/10/15 04:07:45;;;;;;;;;;;;;;;22.71;46.78;93926.81;5056975;28;7119;-61
2022/10/15 04:10:13;;;;;;;;;;;;;;;22.72;46.15;93931.06;5066127;28;6965;-60
2022/10/15 04:12:45;;;;;;;;;;;;;;;22.73;46.15;93924.34;5066593;28;9100;-61
2022/10/15 04:15:16;;;;;;;;;;;;;;;22.72;46.24;93923.59;5060671;28;6986;-60
2022/10/15 04:17:45;;;;;;;;;;;;;;;22.72;46.76;93923.59;5054901;28;7123;-60
2022/10/15 04:20:43;;;;;;;;;;;;;;;22.71;46.09;93911.09;5060099;28;7077;-61
2022/10/15 04:23:25;;;;;;;;;;;;;;;22.72;46.19;93925.56;5015832;28;7104;-60
2022/10/15 04:26:02;;;;;;;;;;;;;;;22.71;46.35;93922.06;5016064;28;9834;-61
2022/10/15 04:28:56;;;;;;;;;;;;;;;22.71;46.52;93922.06;5012117;28;8088;-61
2022/10/15 04:31:31;;;;;;;;;;;;;;;22.70;46.58;93922.59;5031569;28;7298;-61
2022/10/15 04:33:56;;;;;;;;;;;;;;;22.69;46.50;93913.59;5048439;28;7223;-60
2022/10/15 04:36:59;;;;;;;;;;;;;;;22.70;46.79;93911.63;5015318;28;9471;-60
2022/10/15 04:39:24;;;;;;;;;;;;;;;22.72;46.55;93912.63;4980655;28;7211;-61
2022/10/15 04:41:53;;;;;;;;;;;;;;;22.71;46.39;93905.63;4987310;28;8097;-61
2022/10/15 04:44:19;;;;;;;;;;;;;;;22.71;46.60;93902.13;4992677;28;7076;-61
2022/10/15 04:46:45;;;;;;;;;;;;;;;22.71;46.73;93900.16;4988611;28;6975;-61
2022/10/15 04:49:20;;;;;;;;;;;;;;;22.69;46.49;93891.69;4996317;28;7779;-60
2022/10/15 04:51:56;;;;;;;;;;;;;;;22.70;46.46;93898.66;4976966;28;7366;-61
2022/10/15 04:54:34;;;;;;;;;;;;;;;22.69;46.45;93902.66;4982918;28;9244;-61
2022/10/15 04:57:00;;;;;;;;;;;;;;;22.67;46.25;93891.44;4966502;28;7268;-60
2022/10/15 04:59:26;;;;;;;;;;;;;;;22.69;46.74;93894.41;5008408;28;8796;-61
2022/10/15 05:01:54;;;;;;;;;;;;;;;22.69;46.54;93891.69;5020553;28;7582;-61
2022/10/15 05:04:19;;;;;;;;;;;;;;;22.69;46.33;93891.69;5019676;28;9105;-61
2022/10/15 05:06:47;;;;;;;;;;;;;;;22.69;45.92;93897.16;5004919;28;7066;-60
2022/10/15 05:09:13;;;;;;;;;;;;;;;22.68;46.70;93890.19;5021981;28;7550;-61
2022/10/15 05:11:54;;;;;;;;;;;;;;;22.67;46.64;93896.91;5027107;28;7196;-61
2022/10/15 05:14:24;;;;;;;;;;;;;;;22.67;46.43;93904.41;5045575;28;7274;-61
2022/10/15 05:16:51;;;;;;;;;;;;;;;22.66;46.78;93903.66;5072553;28;7796;-61
2022/10/15 05:19:20;;;;;;;;;;;;;;;22.65;46.83;93901.41;5063229;28;7147;-60
2022/10/15 05:21:53;;;;;;;;;;;;;;;22.67;46.63;93907.88;5076161;28;9024;-60
2022/10/15 05:24:30;;;;;;;;;;;;;;;22.66;46.85;93913.88;5062807;28;7360;-61
2022/10/15 05:26:56;;;;;;;;;;;;;;;22.67;47.04;93916.09;5050744;28;7420;-60
2022/10/15 05:29:24;;;;;;;;;;;;;;;22.65;46.72;93910.38;5064717;28;7283;-61
2022/10/15 05:31:52;;;;;;;;;;;;;;;22.67;46.81;93924.34;5057180;28;7283;-61
2022/10/15 05:34:19;;;;;;;;;;;;;;;22.66;46.27;93922.09;5062724;28;9051;-61
2022/10/15 05:37:06;;;;;;;;;;;;;;;22.67;46.43;93927.06;5071773;28;7226;-61
2022/10/15 05:39:42;;;;;;;;;;;;;;;22.66;46.36;93927.59;5086976;28;7462;-61
2022/10/15 05:42:09;;;;;;;;;;;;;;;22.66;46.65;93928.34;5072568;28;7276;-61
2022/10/15 05:44:35;;;;;;;;;;;;;;;22.68;46.44;93938.78;5078874;28;7333;-61
2022/10/15 05:47:11;;;;;;;;;;;;;;;22.67;46.55;93942.78;5067328;28;8688;-60
2022/10/15 05:49:37;;;;;;;;;;;;;;;22.67;46.69;93940.78;5054835;28;7050;-61
2022/10/15 05:52:11;;;;;;;;;;;;;;;22.66;46.66;93947.53;5070942;28;6996;-61
2022/10/15 05:54:39;;;;;;;;;;;;;;;22.66;46.52;93953.00;5055825;28;7202;-60
2022/10/15 05:57:11;;;;;;;;;;;;;;;22.66;46.79;93950.25;5054343;28;7247;-61
2022/10/15 05:59:39;;;;;;;;;;;;;;;22.66;46.99;93955.00;5054168;28;7024;-60
2022/10/15 06:02:05;;;;;;;;;;;;;;;22.67;46.61;93953.72;5083997;28;7090;-60
2022/10/15 06:04:31;;;;;;;;;;;;;;;22.66;46.56;93958.50;5051660;28;7318;-60
2022/10/15 06:06:59;;;;;;;;;;;;;;;22.66;46.40;93944.78;5069491;28;7353;-61
2022/10/15 06:09:27;;;;;;;;;;;;;;;22.66;46.57;93946.78;5064047;28;7065;-61
2022/10/15 06:11:55;;;;;;;;;;;;;;;22.65;46.82;93953.50;5065556;28;7232;-61
2022/10/15 06:14:24;;;;;;;;;;;;;;;22.64;46.92;93952.00;5067151;28;9152;-60
2022/10/15 06:16:53;;;;;;;;;;;;;;;22.64;46.59;93960.97;5077216;28;7286;-61
2022/10/15 06:19:26;;;;;;;;;;;;;;;22.63;46.85;93953.25;5038701;28;7162;-60
2022/10/15 06:21:53;;;;;;;;;;;;;;;22.63;46.54;93956.75;5061580;28;7439;-61
2022/10/15 06:24:46;;;;;;;;;;;;;;;22.64;46.26;93968.47;5039552;28;7179;-61
2022/10/15 06:27:22;;;;;;;;;;;;;;;22.62;46.63;93971.69;4988318;28;7373;-60
2022/10/15 06:29:51;;;;;;;;;;;;;;;22.63;46.34;93978.66;4980736;28;9074;-61
2022/10/15 06:32:26;;;;;;;;;;;;;;;22.63;47.18;93989.63;4971716;28;7000;-61
2022/10/15 06:34:54;;;;;;;;;;;;;;;22.64;46.47;93990.38;4970718;28;7181;-61
2022/10/15 06:37:21;;;;;;;;;;;;;;;22.64;46.68;93993.84;4971592;28;9228;-61
2022/10/15 06:39:49;;;;;;;;;;;;;;;22.65;46.65;93992.63;4971947;28;7247;-61
2022/10/15 06:42:25;;;;;;;;;;;;;;;22.66;46.33;94007.84;4962368;28;7203;-60
2022/10/15 06:44:53;;;;;;;;;;;;;;;22.66;46.36;94005.09;4963999;28;9107;-61
2022/10/15 06:47:29;;;;;;;;;;;;;;;22.64;46.75;94015.78;4973163;28;7194;-61
2022/10/15 06:50:12;;;;;;;;;;;;;;;22.63;46.38;94014.31;4972892;28;8771;-60
2022/10/15 06:52:38;;;;;;;;;;;;;;;22.64;46.91;94020.53;4971571;28;7129;-60
2022/10/15 06:55:15;;;;;;;;;;;;;;;22.65;46.89;94017.28;4977474;28;9065;-61
2022/10/15 06:57:54;;;;;;;;;;;;;;;22.65;46.44;94022.78;4995203;28;9432;-61
2022/10/15 07:00:20;;;;;;;;;;;;;;;22.65;46.59;94019.28;4970321;28;9228;-61
2022/10/15 07:02:45;;;;;;;;;;;;;;;22.65;46.34;94024.75;4963836;28;7610;-61
2022/10/15 07:05:13;;;;;;;;;;;;;;;22.63;46.56;94017.03;5066893;28;7410;-61
2022/10/15 07:07:42;;;;;;;;;;;;;;;22.63;46.80;94019.78;5068912;28;7271;-60
2022/10/15 07:10:08;;;;;;;;;;;;;;;22.63;46.47;94030.00;5069578;28;9218;-60
2022/10/15 07:12:35;;;;;;;;;;;;;;;22.63;46.42;94024.50;5067923;28;7167;-61
2022/10/15 07:15:18;;;;;;;;;;;;;;;22.62;46.30;94042.22;5069258;28;8808;-61
2022/10/15 07:18:00;;;;;;;;;;;;;;;22.62;46.92;94036.75;5060999;28;7246;-60
2022/10/15 07:20:28;;;;;;;;;;;;;;;22.63;46.56;94035.47;5051669;28;9560;-61
2022/10/15 07:23:06;;;;;;;;;;;;;;;22.63;46.79;94036.22;5051284;28;9063;-61
2022/10/15 07:25:38;;;;;;;;;;;;;;;22.61;46.31;94030.50;5048052;28;7148;-60
2022/10/15 07:28:05;;;;;;;;;;;;;;;22.62;46.74;94034.72;5071363;28;7462;-61
2022/10/15 07:30:39;;;;;;;;;;;;;;;22.64;46.75;94036.97;5052071;28;7290;-61
2022/10/15 07:33:24;;;;;;;;;;;;;;;22.64;46.82;94026.75;5054016;28;6986;-61
2022/10/15 07:36:02;;;;;;;;;;;;;;;22.64;46.95;94037.72;5065407;28;9029;-61
2022/10/15 07:38:39;;;;;;;;;;;;;;;22.66;46.40;94043.47;5060124;28;7223;-61
2022/10/15 07:41:18;;;;;;;;;;;;;;;22.67;47.07;94039.47;5085950;28;7442;-61
2022/10/15 07:44:15;;;;;;;;;;;;;;;22.67;46.50;94047.69;5078244;28;7248;-60
2022/10/15 07:46:43;;;;;;;;;;;;;;;22.67;47.06;94055.16;5008790;28;8567;-61
2022/10/15 07:49:10;;;;;;;;;;;;;;;22.68;46.52;94054.69;5002604;28;7172;-61
2022/10/15 07:52:07;;;;;;;;;;;;;;;22.68;46.34;94065.66;5008721;28;6916;-61
2022/10/15 07:54:33;;;;;;;;;;;;;;;22.69;46.96;94055.41;4975270;28;7025;-61
2022/10/15 07:57:12;;;;;;;;;;;;;;;22.70;46.17;94057.66;4982653;28;7029;-60
2022/10/15 07:59:40;;;;;;;;;;;;;;;22.68;46.55;94054.69;4970722;28;7208;-61
2022/10/15 08:02:06;;;;;;;;;;;;;;;22.67;46.24;94052.41;4987169;28;7303;-61
2022/10/15 08:04:33;;;;;;;;;;;;;;;22.67;46.59;94053.16;4976326;28;7280;-61
2022/10/15 08:06:59;;;;;;;;;;;;;;;22.67;46.39;94050.44;4989134;28;7232;-61
2022/10/15 08:09:40;;;;;;;;;;;;;;;22.65;46.55;94050.19;4987107;28;7132;-60
2022/10/15 08:12:18;;;;;;;;;;;;;;;22.68;46.98;94048.44;4991415;28;7366;-60
2022/10/15 08:14:55;;;;;;;;;;;;;;;22.69;46.13;94049.91;4977201;28;9042;-60
2022/10/15 08:17:27;;;;;;;;;;;;;;;22.67;46.37;94044.94;4980571;28;7844;-61
2022/10/15 08:19:55;;;;;;;;;;;;;;;22.67;47.11;94047.69;4981068;28;9120;-61
2022/10/15 08:22:22;;;;;;;;;;;;;;;22.68;46.60;94051.19;4981069;28;7075;-61
2022/10/15 08:24:53;;;;;;;;;;;;;;;22.67;46.72;94042.22;5018475;28;7234;-61
2022/10/15 08:27:29;;;;;;;;;;;;;;;22.67;46.43;94052.41;5015535;28;7224;-60
2022/10/15 08:30:00;;;;;;;;;;;;;;;22.67;46.74;94041.44;5017416;28;7414;-61
2022/10/15 08:32:28;;;;;;;;;;;;;;;22.65;46.75;94041.97;5066819;28;9442;-61
2022/10/15 08:34:58;;;;;;;;;;;;;;;22.68;46.50;94051.94;5065758;28;7253;-61
2022/10/15 08:37:31;;;;;;;;;;;;;;;22.67;46.39;94047.69;5056865;28;8321;-61
2022/10/15 08:40:04;;;;;;;;;;;;;;;22.68;46.44;94062.91;5047339;28;7219;-60
2022/10/15 08:42:45;;;;;;;;;;;;;;;22.70;46.59;94073.34;5075634;28;7419;-61
2022/10/15 08:45:33;;;;;;;;;;;;;;;22.68;46.20;94071.13;5067020;28;7852;-61
2022/10/15 08:48:20;;;;;;;;;;;;;;;22.70;46.50;94074.13;5074660;28;6891;-61
2022/10/15 08:51:07;;;;;;;;;;;;;;;22.70;46.52;94076.09;5086522;28;6989;-61
2022/10/15 08:53:48;;;;;;;;;;;;;;;22.69;46.35;94080.84;5059774;28;7240;-61
2022/10/15 08:56:38;;;;;;;;;;;;;;;22.68;46.38;94082.09;5055694;28;7192;-61
2022/10/15 08:59:04;;;;;;;;;;;;;;;22.69;46.83;94071.84;5056444;28;7313;-61
2022/10/15 09:01:33;;;;;;;;;;;;;;;22.69;46.52;94078.09;5065668;28;9436;-61
2022/10/15 09:04:27;;;;;;;;;;;;;;;22.70;46.29;94070.63;5083742;28;6869;-60
2022/10/15 09:07:13;;;;;;;;;;;;;;;22.70;46.59;94071.38;5072049;28;8951;-60
2022/10/15 09:10:26;;;;;;;;;;;;;;;22.72;46.87;94065.38;5054261;28;9131;-61
2022/10/15 09:13:13;;;;;;;;;;;;;;;22.73;46.49;94073.09;5030630;28;7229;-61
2022/10/15 09:16:00;;;;;;;;;;;;;;;22.72;46.69;94068.88;5002515;28;7228;-61
2022/10/15 09:18:40;;;;;;;;;;;;;;;22.71;46.96;94058.38;5015407;28;7345;-61
2022/10/15 09:21:19;;;;;;;;;;;;;;;22.70;46.99;94065.88;5031168;28;6997;-61
2022/10/15 09:24:00;;;;;;;;;;;;;;;22.72;46.93;94068.88;5014636;28;7031;-60
2022/10/15 09:26:52;;;;;;;;;;;;;;;22.72;46.49;94079.84;5025141;28;7485;-61
2022/10/15 09:29:22;;;;;;;;;;;;;;;22.72;46.67;94077.09;5002978;28;9073;-60
2022/10/15 09:32:06;;;;;;;;;;;;;;;22.70;46.79;94068.63;5030962;28;9076;-61
2022/10/15 09:35:20;;;;;;;;;;;;;;;22.70;47.04;94070.63;5015388;28;9066;-60
2022/10/15 09:38:12;;;;;;;;;;;;;;;22.72;47.08;94076.34;5003865;28;9080;-60
2022/10/15 09:41:09;;;;;;;;;;;;;;;22.71;46.99;94069.34;5008153;28;7246;-61
2022/10/15 09:43:39;;;;;;;;;;;;;;;22.69;47.11;94075.34;5010883;28;7541;-60
2022/10/15 09:46:14;;;;;;;;;;;;;;;22.70;46.78;94074.13;5015716;28;7036;-61
2022/10/15 09:49:08;;;;;;;;;;;;;;;22.70;47.05;94073.34;5048019;28;7178;-60
2022/10/15 09:52:08;;;;;;;;;;;;;;;22.70;46.85;94068.63;5046840;28;7436;-61
2022/10/15 09:55:05;;;;;;;;;;;;;;;22.69;47.26;94078.09;5026217;28;7274;-60
2022/10/15 09:57:35;;;;;;;;;;;;;;;22.68;46.96;94084.84;5027944;28;7050;-61
2022/10/15 10:00:06;;;;;;;;;;;;;;;22.68;47.04;94086.81;5030690;28;7262;-60
2022/10/15 10:02:32;;;;;;;;;;;;;;;22.68;47.20;94093.06;5029768;28;7349;-61
2022/10/15 10:05:25;;;;;;;;;;;;;;;22.69;47.36;94091.78;5033225;28;7318;-60
2022/10/15 10:08:08;;;;;;;;;;;;;;;22.69;47.36;94089.06;5041491;28;7095;-60
2022/10/15 10:10:36;;;;;;;;;;;;;;;22.70;47.05;94096.03;5023264;28;7283;-61
2022/10/15 10:13:22;;;;;;;;;;;;;;;22.70;46.95;94087.81;5032329;28;9379;-61
2022/10/15 10:15:55;;;;;;;;;;;;;;;22.71;46.87;94088.53;5060797;28;8781;-61
2022/10/15 10:18:24;;;;;;;;;;;;;;;22.71;46.97;94088.53;5058518;28;7200;-60
2022/10/15 10:21:21;;;;;;;;;;;;;;;22.71;46.79;94092.03;5078030;28;7209;-61
2022/10/15 10:23:53;;;;;;;;;;;;;;;22.70;46.79;94092.56;5076825;28;7339;-60
2022/10/15 10:26:25;;;;;;;;;;;;;;;22.72;46.98;94099.03;5054599;28;7029;-61
2022/10/15 10:28:56;;;;;;;;;;;;;;;22.70;47.20;94101.53;5062330;28;9647;-61
2022/10/15 10:31:38;;;;;;;;;;;;;;;22.71;46.37;94094.03;5071131;28;6985;-61
2022/10/15 10:34:16;;;;;;;;;;;;;;;22.71;47.00;94089.31;5047595;28;6868;-61
2022/10/15 10:36:53;;;;;;;;;;;;;;;22.70;47.28;94093.31;5048724;28;7301;-61
2022/10/15 10:39:30;;;;;;;;;;;;;;;22.69;47.05;94086.31;5062123;28;8429;-61
2022/10/15 10:42:00;;;;;;;;;;;;;;;22.72;47.23;94098.28;5062638;28;8299;-60
2022/10/15 10:44:30;;;;;;;;;;;;;;;22.70;47.05;94101.53;5062389;28;9451;-60
2022/10/15 10:47:10;;;;;;;;;;;;;;;22.70;47.03;94095.28;5072459;28;9181;-60
2022/10/15 10:49:44;;;;;;;;;;;;;;;22.69;47.17;94094.53;5043903;28;7364;-60
2022/10/15 10:52:28;;;;;;;;;;;;;;;22.69;46.75;94096.53;5043797;28;8372;-60
2022/10/15 10:55:01;;;;;;;;;;;;;;;22.71;47.16;94096.78;5076765;28;9060;-61
2022/10/15 10:57:34;;;;;;;;;;;;;;;22.71;46.78;94094.78;5056850;28;7347;-61
2022/10/15 11:00:04;;;;;;;;;;;;;;;22.71;46.90;94086.56;5037065;28;7083;-60
2022/10/15 11:02:32;;;;;;;;;;;;;;;22.73;47.17;94089.53;5065275;28;7111;-60
2022/10/15 11:04:58;;;;;;;;;;;;;;;22.74;46.98;94096.53;5065223;28;7556;-60
2022/10/15 11:08:01;;;;;;;;;;;;;;;22.76;46.61;94096.78;5080263;28;7224;-61
2022/10/15 11:11:01;;;;;;;;;;;;;;;22.75;46.74;94087.06;5067223;28;7340;-61
2022/10/15 11:13:27;;;;;;;;;;;;;;;22.73;47.06;94083.34;5070070;28;7303;-61
2022/10/15 11:16:10;;;;;;;;;;;;;;;22.69;46.80;94091.78;5050180;28;9068;-61
2022/10/15 11:19:15;;;;;;;;;;;;;;;22.69;46.81;94077.34;5068090;28;7277;-61
2022/10/15 11:21:57;;;;;;;;;;;;;;;22.72;47.18;94076.34;5060612;28;6855;-61
2022/10/15 11:24:42;;;;;;;;;;;;;;;22.70;46.63;94078.84;5056974;28;7806;-61
2022/10/15 11:27:16;;;;;;;;;;;;;;;22.69;47.19;94074.59;5062426;28;7119;-61
2022/10/15 11:30:00;;;;;;;;;;;;;;;22.69;46.96;94078.09;5060680;28;7190;-60
2022/10/15 11:32:34;;;;;;;;;;;;;;;22.70;47.01;94078.84;5086272;28;7028;-61
2022/10/15 11:35:21;;;;;;;;;;;;;;;22.70;47.10;94067.88;5073285;28;7442;-60
2022/10/15 11:38:02;;;;;;;;;;;;;;;22.71;47.19;94072.84;5049415;28;9325;-60
2022/10/15 11:41:18;;;;;;;;;;;;;;;22.72;47.31;94066.13;5085939;28;7923;-60
2022/10/15 11:44:10;;;;;;;;;;;;;;;22.71;47.18;94061.13;5029317;28;7296;-61
2022/10/15 11:47:05;;;;;;;;;;;;;;;22.73;47.27;94067.63;5016776;28;7236;-60
2022/10/15 11:49:40;;;;;;;;;;;;;;;22.74;47.06;94068.38;5028182;28;9502;-60
2022/10/15 11:52:18;;;;;;;;;;;;;;;22.72;47.15;94057.16;5029958;28;7259;-60
2022/10/15 11:54:54;;;;;;;;;;;;;;;22.71;47.11;94064.63;5017500;28;9405;-61
2022/10/15 11:57:26;;;;;;;;;;;;;;;22.73;47.69;94055.91;5039421;28;6978;-61
2022/10/15 12:00:04;;;;;;;;;;;;;;;22.76;47.16;94054.91;4996385;28;7259;-61
2022/10/15 12:02:37;;;;;;;;;;;;;;;22.73;47.56;94051.16;5021507;28;7256;-61
2022/10/15 12:05:14;;;;;;;;;;;;;;;22.75;47.54;94043.19;5022244;28;9744;-60
2022/10/15 12:07:43;;;;;;;;;;;;;;;22.76;47.48;94035.72;5022226;28;7234;-61
2022/10/15 12:10:29;;;;;;;;;;;;;;;22.81;47.77;94037.72;5013754;28;7511;-60
2022/10/15 12:13:04;;;;;;;;;;;;;;;22.79;47.66;94027.25;5038424;28;7127;-60
2022/10/15 12:15:54;;;;;;;;;;;;;;;22.79;47.22;94027.25;5042613;28;7258;-61
2022/10/15 12:18:30;;;;;;;;;;;;;;;22.78;47.39;94036.72;5030623;28;7005;-61
2022/10/15 12:20:59;;;;;;;;;;;;;;;22.79;47.53;94021.78;5071106;28;10484;-60
2022/10/15 12:23:40;;;;;;;;;;;;;;;22.80;47.21;94031.47;5063503;28;7271;-61
2022/10/15 12:26:32;;;;;;;;;;;;;;;22.78;47.38;94020.25;5082176;28;7325;-60
2022/10/15 12:29:19;;;;;;;;;;;;;;;22.77;47.42;94018.75;5061444;28;7272;-61
2022/10/15 12:32:20;;;;;;;;;;;;;;;22.79;47.52;94008.06;5053599;28;7351;-61
2022/10/15 12:34:58;;;;;;;;;;;;;;;22.80;47.43;94019.75;5085463;28;10262;-60
2022/10/15 12:37:28;;;;;;;;;;;;;;;22.79;47.63;94013.53;5070014;28;9378;-61
2022/10/15 12:40:02;;;;;;;;;;;;;;;22.82;47.24;94023.50;5063431;28;9027;-61
2022/10/15 12:42:34;;;;;;;;;;;;;;;22.79;47.54;94001.81;5071145;28;8519;-60
2022/10/15 12:45:18;;;;;;;;;;;;;;;22.81;47.60;94008.31;5071362;28;7248;-60
2022/10/15 12:47:52;;;;;;;;;;;;;;;22.83;47.32;94000.31;5050923;28;9709;-61
2022/10/15 12:50:36;;;;;;;;;;;;;;;22.86;47.21;94009.53;5071027;28;7006;-60
2022/10/15 12:53:33;;;;;;;;;;;;;;;22.88;47.04;93999.53;5070714;28;7262;-61
2022/10/15 12:56:14;;;;;;;;;;;;;;;22.92;47.37;94002.03;5053085;28;7231;-61
2022/10/15 12:58:59;;;;;;;;;;;;;;;22.91;47.14;94003.28;5069920;28;7138;-60
2022/10/15 13:01:45;;;;;;;;;;;;;;;22.85;47.55;94002.56;5063424;28;9498;-61
2022/10/15 13:04:14;;;;;;;;;;;;;;;22.85;47.78;93994.34;5087162;28;8986;-60
2022/10/15 13:06:43;;;;;;;;;;;;;;;22.86;47.33;94004.06;5066115;28;7206;-61
2022/10/15 13:09:28;;;;;;;;;;;;;;;22.90;47.73;94007.28;5055761;28;8330;-60
2022/10/15 13:12:00;;;;;;;;;;;;;;;22.93;47.81;94001.53;5074346;28;7064;-61
2022/10/15 13:14:53;;;;;;;;;;;;;;;22.96;47.82;94011.50;5072932;28;7317;-60
2022/10/15 13:17:21;;;;;;;;;;;;;;;22.94;48.11;94008.53;5046282;28;7113;-60
2022/10/15 13:20:35;;;;;;;;;;;;;;;22.99;47.61;94010.50;5045104;28;7308;-60
2022/10/15 13:23:16;;;;;;;;;;;;;;;23.05;47.24;94003.00;5029253;28;8751;-61
2022/10/15 13:25:42;;;;;;;;;;;;;;;23.07;47.39;93997.03;5029793;28;7270;-61
2022/10/15 13:28:32;;;;;;;;;;;;;;;23.09;47.90;93995.28;5045697;28;7666;-61
2022/10/15 13:31:35;;;;;;;;;;;;;;;23.11;47.80;93987.28;5030821;28;7264;-61
2022/10/15 13:34:21;;;;;;;;;;;;;;;23.12;48.04;93977.03;4942624;28;9402;-60
2022/10/15 13:36:48;;;;;;;;;;;;;;;23.16;47.81;93989.25;4945998;28;8260;-61
2022/10/15 13:39:27;;;;;;;;;;;;;;;23.18;47.45;93981.25;4942699;28;9424;-61
2022/10/15 13:42:23;;;;;;;;;;;;;;;23.21;47.33;93974.75;4940693;28;9078;-61
2022/10/15 13:45:16;;;;;;;;;;;;;;;23.20;47.61;93970.53;4921995;28;8021;-61
2022/10/15 13:47:48;;;;;;;;;;;;;;;23.17;47.95;93965.31;4934065;29;7116;-60
2022/10/15 13:50:38;;;;;;;;;;;;;;;23.19;47.72;93965.53;4933275;29;7189;-60